sensor_id;sensor_type;location;lat;lon;timestamp;P1;durP1;ratioP1;P2;durP2;ratioP2
11143;SDS011;5626;44.730;10.276;2022-10-17T00:01:58;25.73;;;19.83;;
11143;SDS011;5626;44.730;10.276;2022-10-17T00:04:29;22.83;;;18.90;;
11143;SDS011;5626;44.730;10.276;2022-10-17T00:07:03;24.40;;;19.43;;
11143;SDS011;5626;44.730;10.276;2022-10-17T00:09:33;26.90;;;20.10;;
11143;SDS011;5626;44.730;10.276;2022-10-17T00:12:02;26.40;;;20.80;;
11143;SDS011;5626;44.730;10.276;2022-10-17T00:14:32;25.57;;;20.80;;
11143;SDS011;5626;44.730;10.276;2022-10-17T00:17:02;27.53;;;21.47;;
11143;SDS011;5626;44.730;10.276;2022-10-17T00:19:33;27.27;;;20.47;;
11143;SDS011;5626;44.730;10.276;2022-10-17T00:22:03;26.47;;;20.90;;
11143;SDS011;5626;44.730;10.276;2022-10-17T00:24:32;24.67;;;20.50;;
11143;SDS011;5626;44.730;10.276;2022-10-17T00:27:02;26.90;;;20.97;;
11143;SDS011;5626;44.730;10.276;2022-10-17T00:29:32;29.83;;;20.50;;
11143;SDS011;5626;44.730;10.276;2022-10-17T00:32:01;23.67;;;20.37;;
11143;SDS011;5626;44.730;10.276;2022-10-17T00:34:32;27.17;;;21.60;;
11143;SDS011;5626;44.730;10.276;2022-10-17T00:37:02;28.63;;;21.63;;
11143;SDS011;5626;44.730;10.276;2022-10-17T00:39:31;27.97;;;20.80;;
11143;SDS011;5626;44.730;10.276;2022-10-17T00:42:01;26.57;;;21.10;;
11143;SDS011;5626;44.730;10.276;2022-10-17T00:47:28;26.23;;;21.17;;
11143;SDS011;5626;44.730;10.276;2022-10-17T00:49:59;27.60;;;21.23;;
11143;SDS011;5626;44.730;10.276;2022-10-17T00:52:34;28.27;;;21.38;;
11143;SDS011;5626;44.730;10.276;2022-10-17T00:55:06;29.10;;;21.37;;
11143;SDS011;5626;44.730;10.276;2022-10-17T00:57:40;30.47;;;22.07;;
11143;SDS011;5626;44.730;10.276;2022-10-17T01:00:12;27.70;;;21.20;;
11143;SDS011;5626;44.730;10.276;2022-10-17T01:02:43;29.83;;;22.87;;
11143;SDS011;5626;44.730;10.276;2022-10-17T01:05:14;28.60;;;21.20;;
11143;SDS011;5626;44.730;10.276;2022-10-17T01:07:46;24.03;;;20.97;;
11143;SDS011;5626;44.730;10.276;2022-10-17T01:10:18;29.60;;;22.33;;
11143;SDS011;5626;44.730;10.276;2022-10-17T01:12:56;28.20;;;21.87;;
11143;SDS011;5626;44.730;10.276;2022-10-17T01:15:35;29.13;;;22.27;;
11143;SDS011;5626;44.730;10.276;2022-10-17T01:18:13;26.30;;;21.43;;
11143;SDS011;5626;44.730;10.276;2022-10-17T01:30:25;27.93;;;22.20;;
11143;SDS011;5626;44.730;10.276;2022-10-17T01:33:21;29.43;;;22.47;;
11143;SDS011;5626;44.730;10.276;2022-10-17T01:36:00;28.73;;;22.07;;
11143;SDS011;5626;44.730;10.276;2022-10-17T01:38:37;28.45;;;22.88;;
11143;SDS011;5626;44.730;10.276;2022-10-17T01:41:14;30.03;;;23.33;;
11143;SDS011;5626;44.730;10.276;2022-10-17T01:43:52;30.90;;;23.93;;
11143;SDS011;5626;44.730;10.276;2022-10-17T01:46:26;30.08;;;23.35;;
11143;SDS011;5626;44.730;10.276;2022-10-17T01:49:00;30.63;;;24.33;;
11143;SDS011;5626;44.730;10.276;2022-10-17T01:51:33;30.47;;;23.17;;
11143;SDS011;5626;44.730;10.276;2022-10-17T01:54:08;28.47;;;22.57;;
11143;SDS011;5626;44.730;10.276;2022-10-17T01:56:41;29.55;;;22.95;;
11143;SDS011;5626;44.730;10.276;2022-10-17T01:59:14;29.00;;;22.02;;
11143;SDS011;5626;44.730;10.276;2022-10-17T02:01:49;27.03;;;21.90;;
11143;SDS011;5626;44.730;10.276;2022-10-17T02:04:23;27.77;;;22.35;;
11143;SDS011;5626;44.730;10.276;2022-10-17T02:06:53;28.85;;;21.60;;
11143;SDS011;5626;44.730;10.276;2022-10-17T02:09:23;28.97;;;22.50;;
11143;SDS011;5626;44.730;10.276;2022-10-17T02:12:06;32.57;;;22.17;;
11143;SDS011;5626;44.730;10.276;2022-10-17T02:14:59;27.75;;;21.27;;
11143;SDS011;5626;44.730;10.276;2022-10-17T02:17:49;27.23;;;21.10;;
11143;SDS011;5626;44.730;10.276;2022-10-17T02:20:27;28.17;;;22.10;;
11143;SDS011;5626;44.730;10.276;2022-10-17T02:23:08;30.30;;;22.80;;
11143;SDS011;5626;44.730;10.276;2022-10-17T02:25:43;30.47;;;23.00;;
11143;SDS011;5626;44.730;10.276;2022-10-17T02:28:19;28.87;;;22.83;;
11143;SDS011;5626;44.730;10.276;2022-10-17T02:30:52;33.23;;;23.73;;
11143;SDS011;5626;44.730;10.276;2022-10-17T02:33:26;29.47;;;22.60;;
11143;SDS011;5626;44.730;10.276;2022-10-17T02:36:03;29.43;;;22.40;;
11143;SDS011;5626;44.730;10.276;2022-10-17T02:38:38;30.77;;;23.60;;
11143;SDS011;5626;44.730;10.276;2022-10-17T02:41:12;31.13;;;23.37;;
11143;SDS011;5626;44.730;10.276;2022-10-17T02:43:44;29.03;;;23.23;;
11143;SDS011;5626;44.730;10.276;2022-10-17T02:46:17;30.23;;;22.40;;
11143;SDS011;5626;44.730;10.276;2022-10-17T02:48:49;28.27;;;21.80;;
11143;SDS011;5626;44.730;10.276;2022-10-17T02:51:24;32.57;;;22.97;;
11143;SDS011;5626;44.730;10.276;2022-10-17T02:54:00;26.80;;;21.70;;
11143;SDS011;5626;44.730;10.276;2022-10-17T02:56:40;29.90;;;22.70;;
11143;SDS011;5626;44.730;10.276;2022-10-17T02:59:14;26.60;;;21.33;;
11143;SDS011;5626;44.730;10.276;2022-10-17T03:01:47;27.47;;;21.20;;
11143;SDS011;5626;44.730;10.276;2022-10-17T03:04:18;26.23;;;21.47;;
11143;SDS011;5626;44.730;10.276;2022-10-17T03:06:49;27.07;;;20.97;;
11143;SDS011;5626;44.730;10.276;2022-10-17T03:09:19;28.13;;;21.70;;
11143;SDS011;5626;44.730;10.276;2022-10-17T03:11:49;27.90;;;21.33;;
11143;SDS011;5626;44.730;10.276;2022-10-17T03:14:19;27.77;;;21.97;;
11143;SDS011;5626;44.730;10.276;2022-10-17T03:16:49;23.77;;;18.50;;
11143;SDS011;5626;44.730;10.276;2022-10-17T03:19:19;21.10;;;17.00;;
11143;SDS011;5626;44.730;10.276;2022-10-17T03:21:52;23.67;;;18.03;;
11143;SDS011;5626;44.730;10.276;2022-10-17T03:24:22;20.47;;;16.50;;
11143;SDS011;5626;44.730;10.276;2022-10-17T03:26:51;23.97;;;15.73;;
11143;SDS011;5626;44.730;10.276;2022-10-17T03:29:21;22.50;;;16.53;;
11143;SDS011;5626;44.730;10.276;2022-10-17T03:31:51;18.47;;;14.77;;
11143;SDS011;5626;44.730;10.276;2022-10-17T03:34:21;20.07;;;15.27;;
11143;SDS011;5626;44.730;10.276;2022-10-17T03:36:53;18.03;;;14.93;;
11143;SDS011;5626;44.730;10.276;2022-10-17T03:39:23;17.40;;;14.50;;
11143;SDS011;5626;44.730;10.276;2022-10-17T03:41:53;20.77;;;15.77;;
11143;SDS011;5626;44.730;10.276;2022-10-17T03:44:23;20.40;;;15.83;;
11143;SDS011;5626;44.730;10.276;2022-10-17T03:46:53;21.20;;;17.13;;
11143;SDS011;5626;44.730;10.276;2022-10-17T03:49:23;22.63;;;18.33;;
11143;SDS011;5626;44.730;10.276;2022-10-17T03:51:55;21.27;;;18.27;;
11143;SDS011;5626;44.730;10.276;2022-10-17T03:54:26;21.80;;;18.60;;
11143;SDS011;5626;44.730;10.276;2022-10-17T03:56:56;25.33;;;19.53;;
11143;SDS011;5626;44.730;10.276;2022-10-17T03:59:26;31.17;;;21.83;;
11143;SDS011;5626;44.730;10.276;2022-10-17T04:02:04;32.07;;;22.70;;
11143;SDS011;5626;44.730;10.276;2022-10-17T04:04:35;28.17;;;22.60;;
11143;SDS011;5626;44.730;10.276;2022-10-17T04:07:06;30.57;;;23.57;;
11143;SDS011;5626;44.730;10.276;2022-10-17T04:09:38;35.23;;;25.13;;
11143;SDS011;5626;44.730;10.276;2022-10-17T04:12:12;35.10;;;26.17;;
11143;SDS011;5626;44.730;10.276;2022-10-17T04:14:43;35.30;;;25.70;;
11143;SDS011;5626;44.730;10.276;2022-10-17T04:17:14;34.10;;;25.03;;
11143;SDS011;5626;44.730;10.276;2022-10-17T04:19:44;33.33;;;24.90;;
11143;SDS011;5626;44.730;10.276;2022-10-17T04:22:17;36.30;;;25.17;;
11143;SDS011;5626;44.730;10.276;2022-10-17T04:24:47;36.67;;;26.97;;
11143;SDS011;5626;44.730;10.276;2022-10-17T04:27:26;37.07;;;26.50;;
11143;SDS011;5626;44.730;10.276;2022-10-17T04:29:56;33.73;;;25.07;;
11143;SDS011;5626;44.730;10.276;2022-10-17T04:32:25;32.57;;;25.07;;
11143;SDS011;5626;44.730;10.276;2022-10-17T04:35:02;36.93;;;26.50;;
11143;SDS011;5626;44.730;10.276;2022-10-17T04:37:34;32.60;;;24.13;;
11143;SDS011;5626;44.730;10.276;2022-10-17T04:40:12;32.37;;;23.40;;
11143;SDS011;5626;44.730;10.276;2022-10-17T04:42:42;31.43;;;22.23;;
11143;SDS011;5626;44.730;10.276;2022-10-17T04:45:18;27.90;;;22.63;;
11143;SDS011;5626;44.730;10.276;2022-10-17T04:47:52;28.07;;;21.13;;
11143;SDS011;5626;44.730;10.276;2022-10-17T04:50:22;26.90;;;21.40;;
11143;SDS011;5626;44.730;10.276;2022-10-17T04:53:16;30.63;;;21.27;;
11143;SDS011;5626;44.730;10.276;2022-10-17T04:55:46;25.67;;;20.07;;
11143;SDS011;5626;44.730;10.276;2022-10-17T04:58:16;27.00;;;20.20;;
11143;SDS011;5626;44.730;10.276;2022-10-17T05:00:46;26.20;;;19.43;;
11143;SDS011;5626;44.730;10.276;2022-10-17T05:03:21;26.27;;;19.70;;
11143;SDS011;5626;44.730;10.276;2022-10-17T05:05:51;22.73;;;17.30;;
11143;SDS011;5626;44.730;10.276;2022-10-17T05:08:22;21.63;;;17.03;;
11143;SDS011;5626;44.730;10.276;2022-10-17T05:10:52;20.83;;;17.47;;
11143;SDS011;5626;44.730;10.276;2022-10-17T05:13:22;22.30;;;17.33;;
11143;SDS011;5626;44.730;10.276;2022-10-17T05:15:52;19.77;;;15.90;;
11143;SDS011;5626;44.730;10.276;2022-10-17T05:18:21;20.90;;;15.67;;
11143;SDS011;5626;44.730;10.276;2022-10-17T05:20:51;18.93;;;15.03;;
11143;SDS011;5626;44.730;10.276;2022-10-17T05:23:23;16.67;;;14.50;;
11143;SDS011;5626;44.730;10.276;2022-10-17T05:25:53;14.53;;;12.90;;
11143;SDS011;5626;44.730;10.276;2022-10-17T05:28:23;12.30;;;11.00;;
11143;SDS011;5626;44.730;10.276;2022-10-17T05:31:00;16.00;;;13.20;;
11143;SDS011;5626;44.730;10.276;2022-10-17T05:33:31;15.07;;;13.03;;
11143;SDS011;5626;44.730;10.276;2022-10-17T05:36:01;15.07;;;12.53;;
11143;SDS011;5626;44.730;10.276;2022-10-17T05:38:34;15.20;;;12.60;;
11143;SDS011;5626;44.730;10.276;2022-10-17T05:41:04;18.10;;;12.93;;
11143;SDS011;5626;44.730;10.276;2022-10-17T05:43:34;13.47;;;12.07;;
11143;SDS011;5626;44.730;10.276;2022-10-17T05:46:04;16.30;;;12.93;;
11143;SDS011;5626;44.730;10.276;2022-10-17T05:48:35;14.57;;;12.50;;
11143;SDS011;5626;44.730;10.276;2022-10-17T05:51:06;16.70;;;11.97;;
11143;SDS011;5626;44.730;10.276;2022-10-17T05:53:39;15.60;;;12.57;;
11143;SDS011;5626;44.730;10.276;2022-10-17T05:56:15;15.67;;;11.43;;
11143;SDS011;5626;44.730;10.276;2022-10-17T05:58:48;14.90;;;12.13;;
11143;SDS011;5626;44.730;10.276;2022-10-17T06:01:39;15.45;;;11.85;;
11143;SDS011;5626;44.730;10.276;2022-10-17T06:04:09;16.30;;;12.25;;
11143;SDS011;5626;44.730;10.276;2022-10-17T06:06:39;16.92;;;12.05;;
11143;SDS011;5626;44.730;10.276;2022-10-17T06:09:11;19.27;;;13.07;;
11143;SDS011;5626;44.730;10.276;2022-10-17T06:11:44;14.55;;;12.52;;
11143;SDS011;5626;44.730;10.276;2022-10-17T06:14:15;17.70;;;12.43;;
11143;SDS011;5626;44.730;10.276;2022-10-17T06:16:47;14.60;;;10.98;;
11143;SDS011;5626;44.730;10.276;2022-10-17T06:19:17;12.05;;;10.52;;
11143;SDS011;5626;44.730;10.276;2022-10-17T06:21:47;13.90;;;11.20;;
11143;SDS011;5626;44.730;10.276;2022-10-17T06:24:23;14.15;;;11.02;;
11143;SDS011;5626;44.730;10.276;2022-10-17T06:26:54;13.25;;;11.23;;
11143;SDS011;5626;44.730;10.276;2022-10-17T06:29:25;13.70;;;11.32;;
11143;SDS011;5626;44.730;10.276;2022-10-17T06:31:55;18.15;;;12.15;;
11143;SDS011;5626;44.730;10.276;2022-10-17T06:34:25;15.88;;;11.38;;
11143;SDS011;5626;44.730;10.276;2022-10-17T06:36:55;13.13;;;11.75;;
11143;SDS011;5626;44.730;10.276;2022-10-17T06:39:26;14.02;;;11.20;;
11143;SDS011;5626;44.730;10.276;2022-10-17T06:42:21;17.33;;;13.98;;
11143;SDS011;5626;44.730;10.276;2022-10-17T06:45:06;13.35;;;10.98;;
11143;SDS011;5626;44.730;10.276;2022-10-17T06:47:52;16.95;;;12.25;;
11143;SDS011;5626;44.730;10.276;2022-10-17T06:50:39;18.85;;;12.75;;
11143;SDS011;5626;44.730;10.276;2022-10-17T06:53:18;16.75;;;12.48;;
11143;SDS011;5626;44.730;10.276;2022-10-17T06:56:08;17.95;;;13.18;;
11143;SDS011;5626;44.730;10.276;2022-10-17T06:58:52;18.40;;;14.15;;
11143;SDS011;5626;44.730;10.276;2022-10-17T07:01:25;16.65;;;14.50;;
11143;SDS011;5626;44.730;10.276;2022-10-17T07:03:58;18.33;;;14.20;;
11143;SDS011;5626;44.730;10.276;2022-10-17T07:06:30;21.17;;;15.93;;
11143;SDS011;5626;44.730;10.276;2022-10-17T07:09:05;18.17;;;15.23;;
11143;SDS011;5626;44.730;10.276;2022-10-17T07:11:38;19.65;;;15.25;;
11143;SDS011;5626;44.730;10.276;2022-10-17T07:14:07;17.58;;;15.68;;
11143;SDS011;5626;44.730;10.276;2022-10-17T07:16:37;17.08;;;14.25;;
11143;SDS011;5626;44.730;10.276;2022-10-17T07:19:17;18.88;;;14.25;;
11143;SDS011;5626;44.730;10.276;2022-10-17T07:21:47;17.77;;;14.55;;
11143;SDS011;5626;44.730;10.276;2022-10-17T07:24:17;16.17;;;14.27;;
11143;SDS011;5626;44.730;10.276;2022-10-17T07:26:53;18.60;;;15.05;;
11143;SDS011;5626;44.730;10.276;2022-10-17T07:29:23;20.10;;;16.50;;
11143;SDS011;5626;44.730;10.276;2022-10-17T07:32:05;16.30;;;13.98;;
11143;SDS011;5626;44.730;10.276;2022-10-17T07:34:36;15.65;;;14.05;;
11143;SDS011;5626;44.730;10.276;2022-10-17T07:37:07;15.43;;;13.90;;
11143;SDS011;5626;44.730;10.276;2022-10-17T07:39:41;14.95;;;12.95;;
11143;SDS011;5626;44.730;10.276;2022-10-17T07:42:13;17.08;;;13.57;;
11143;SDS011;5626;44.730;10.276;2022-10-17T07:44:43;16.20;;;13.77;;
11143;SDS011;5626;44.730;10.276;2022-10-17T07:47:14;18.00;;;14.10;;
11143;SDS011;5626;44.730;10.276;2022-10-17T07:49:46;17.08;;;13.73;;
11143;SDS011;5626;44.730;10.276;2022-10-17T07:52:15;18.10;;;15.02;;
11143;SDS011;5626;44.730;10.276;2022-10-17T07:54:45;17.58;;;13.95;;
11143;SDS011;5626;44.730;10.276;2022-10-17T07:57:16;18.77;;;14.40;;
11143;SDS011;5626;44.730;10.276;2022-10-17T07:59:46;16.25;;;14.55;;
11143;SDS011;5626;44.730;10.276;2022-10-17T08:02:19;16.83;;;13.23;;
11143;SDS011;5626;44.730;10.276;2022-10-17T08:04:50;17.17;;;13.98;;
11143;SDS011;5626;44.730;10.276;2022-10-17T08:07:20;16.75;;;14.02;;
11143;SDS011;5626;44.730;10.276;2022-10-17T08:09:51;17.48;;;14.48;;
11143;SDS011;5626;44.730;10.276;2022-10-17T08:12:22;15.10;;;13.60;;
11143;SDS011;5626;44.730;10.276;2022-10-17T08:14:52;15.30;;;13.57;;
11143;SDS011;5626;44.730;10.276;2022-10-17T08:17:22;17.73;;;14.25;;
11143;SDS011;5626;44.730;10.276;2022-10-17T08:19:52;18.02;;;14.10;;
11143;SDS011;5626;44.730;10.276;2022-10-17T08:22:21;16.60;;;13.77;;
11143;SDS011;5626;44.730;10.276;2022-10-17T08:24:51;15.23;;;13.52;;
11143;SDS011;5626;44.730;10.276;2022-10-17T08:27:22;16.05;;;13.65;;
11143;SDS011;5626;44.730;10.276;2022-10-17T08:29:54;14.65;;;12.27;;
11143;SDS011;5626;44.730;10.276;2022-10-17T08:32:24;14.95;;;13.45;;
11143;SDS011;5626;44.730;10.276;2022-10-17T08:34:56;14.82;;;13.27;;
11143;SDS011;5626;44.730;10.276;2022-10-17T08:37:25;13.93;;;12.63;;
11143;SDS011;5626;44.730;10.276;2022-10-17T08:39:56;14.82;;;13.32;;
11143;SDS011;5626;44.730;10.276;2022-10-17T08:42:32;15.73;;;13.15;;
11143;SDS011;5626;44.730;10.276;2022-10-17T08:45:15;14.50;;;12.57;;
11143;SDS011;5626;44.730;10.276;2022-10-17T08:47:50;13.95;;;12.55;;
11143;SDS011;5626;44.730;10.276;2022-10-17T08:50:28;15.07;;;13.43;;
11143;SDS011;5626;44.730;10.276;2022-10-17T08:53:05;14.73;;;13.07;;
11143;SDS011;5626;44.730;10.276;2022-10-17T08:55:41;16.35;;;13.25;;
11143;SDS011;5626;44.730;10.276;2022-10-17T08:58:16;13.82;;;12.43;;
11143;SDS011;5626;44.730;10.276;2022-10-17T09:00:50;14.10;;;12.15;;
11143;SDS011;5626;44.730;10.276;2022-10-17T09:03:33;14.35;;;12.90;;
11143;SDS011;5626;44.730;10.276;2022-10-17T09:06:20;14.05;;;12.45;;
11143;SDS011;5626;44.730;10.276;2022-10-17T09:09:00;14.48;;;12.98;;
11143;SDS011;5626;44.730;10.276;2022-10-17T09:11:42;13.45;;;12.15;;
11143;SDS011;5626;44.730;10.276;2022-10-17T09:14:43;14.20;;;12.68;;
11143;SDS011;5626;44.730;10.276;2022-10-17T09:17:25;13.52;;;12.23;;
11143;SDS011;5626;44.730;10.276;2022-10-17T09:20:04;13.02;;;11.73;;
11143;SDS011;5626;44.730;10.276;2022-10-17T09:22:40;14.50;;;12.93;;
11143;SDS011;5626;44.730;10.276;2022-10-17T09:25:15;14.70;;;13.15;;
11143;SDS011;5626;44.730;10.276;2022-10-17T09:27:47;18.23;;;16.00;;
11143;SDS011;5626;44.730;10.276;2022-10-17T09:33:17;19.65;;;16.70;;
11143;SDS011;5626;44.730;10.276;2022-10-17T09:35:49;19.40;;;17.38;;
11143;SDS011;5626;44.730;10.276;2022-10-17T09:38:20;20.73;;;18.60;;
11143;SDS011;5626;44.730;10.276;2022-10-17T09:40:53;23.38;;;20.90;;
11143;SDS011;5626;44.730;10.276;2022-10-17T09:43:24;22.77;;;20.30;;
11143;SDS011;5626;44.730;10.276;2022-10-17T09:45:58;17.95;;;16.05;;
11143;SDS011;5626;44.730;10.276;2022-10-17T09:48:34;16.30;;;14.60;;
11143;SDS011;5626;44.730;10.276;2022-10-17T09:51:06;20.48;;;18.30;;
11143;SDS011;5626;44.730;10.276;2022-10-17T09:53:41;18.67;;;16.83;;
11143;SDS011;5626;44.730;10.276;2022-10-17T09:56:15;23.77;;;20.73;;
11143;SDS011;5626;44.730;10.276;2022-10-17T09:58:47;24.48;;;19.85;;
11143;SDS011;5626;44.730;10.276;2022-10-17T10:01:22;27.98;;;23.63;;
11143;SDS011;5626;44.730;10.276;2022-10-17T10:04:08;21.77;;;19.55;;
11143;SDS011;5626;44.730;10.276;2022-10-17T10:06:39;25.80;;;23.08;;
11143;SDS011;5626;44.730;10.276;2022-10-17T10:09:31;30.83;;;26.05;;
11143;SDS011;5626;44.730;10.276;2022-10-17T10:12:02;29.70;;;26.40;;
11143;SDS011;5626;44.730;10.276;2022-10-17T10:14:44;24.77;;;21.75;;
11143;SDS011;5626;44.730;10.276;2022-10-17T10:17:26;28.23;;;25.10;;
11143;SDS011;5626;44.730;10.276;2022-10-17T10:20:24;36.00;;;28.35;;
11143;SDS011;5626;44.730;10.276;2022-10-17T10:23:13;33.60;;;29.85;;
11143;SDS011;5626;44.730;10.276;2022-10-17T10:25:53;37.05;;;32.60;;
11143;SDS011;5626;44.730;10.276;2022-10-17T10:28:25;36.63;;;32.45;;
11143;SDS011;5626;44.730;10.276;2022-10-17T10:30:58;34.97;;;31.15;;
11143;SDS011;5626;44.730;10.276;2022-10-17T10:33:33;35.80;;;31.92;;
11143;SDS011;5626;44.730;10.276;2022-10-17T10:36:06;35.80;;;31.95;;
11143;SDS011;5626;44.730;10.276;2022-10-17T10:38:38;38.47;;;33.00;;
11143;SDS011;5626;44.730;10.276;2022-10-17T10:41:09;36.92;;;32.92;;
11143;SDS011;5626;44.730;10.276;2022-10-17T10:43:40;37.45;;;33.10;;
11143;SDS011;5626;44.730;10.276;2022-10-17T10:46:15;38.63;;;32.63;;
11143;SDS011;5626;44.730;10.276;2022-10-17T10:48:52;38.30;;;32.65;;
11143;SDS011;5626;44.730;10.276;2022-10-17T10:51:26;43.55;;;36.30;;
11143;SDS011;5626;44.730;10.276;2022-10-17T10:54:01;38.90;;;34.60;;
11143;SDS011;5626;44.730;10.276;2022-10-17T10:56:36;38.08;;;33.67;;
11143;SDS011;5626;44.730;10.276;2022-10-17T10:59:12;39.70;;;33.97;;
11143;SDS011;5626;44.730;10.276;2022-10-17T11:01:50;38.20;;;33.92;;
11143;SDS011;5626;44.730;10.276;2022-10-17T11:04:27;39.53;;;34.40;;
11143;SDS011;5626;44.730;10.276;2022-10-17T11:07:03;39.83;;;35.63;;
11143;SDS011;5626;44.730;10.276;2022-10-17T11:09:41;38.33;;;34.22;;
11143;SDS011;5626;44.730;10.276;2022-10-17T11:12:18;40.78;;;36.45;;
11143;SDS011;5626;44.730;10.276;2022-10-17T11:14:52;38.95;;;34.58;;
11143;SDS011;5626;44.730;10.276;2022-10-17T11:17:30;41.75;;;36.28;;
11143;SDS011;5626;44.730;10.276;2022-10-17T11:20:13;43.15;;;38.22;;
11143;SDS011;5626;44.730;10.276;2022-10-17T11:22:48;36.45;;;32.78;;
11143;SDS011;5626;44.730;10.276;2022-10-17T11:25:28;40.72;;;35.78;;
11143;SDS011;5626;44.730;10.276;2022-10-17T11:28:01;39.08;;;34.97;;
11143;SDS011;5626;44.730;10.276;2022-10-17T11:30:36;39.95;;;35.90;;
11143;SDS011;5626;44.730;10.276;2022-10-17T11:33:17;40.15;;;36.05;;
11143;SDS011;5626;44.730;10.276;2022-10-17T11:35:56;37.72;;;33.75;;
11143;SDS011;5626;44.730;10.276;2022-10-17T11:38:34;40.80;;;36.53;;
11143;SDS011;5626;44.730;10.276;2022-10-17T11:41:09;39.33;;;35.13;;
11143;SDS011;5626;44.730;10.276;2022-10-17T11:43:43;41.10;;;35.60;;
11143;SDS011;5626;44.730;10.276;2022-10-17T11:46:18;40.20;;;36.03;;
11143;SDS011;5626;44.730;10.276;2022-10-17T11:48:55;39.92;;;35.83;;
11143;SDS011;5626;44.730;10.276;2022-10-17T11:51:37;38.67;;;34.72;;
11143;SDS011;5626;44.730;10.276;2022-10-17T11:54:29;38.13;;;34.28;;
11143;SDS011;5626;44.730;10.276;2022-10-17T11:57:15;38.28;;;34.42;;
11143;SDS011;5626;44.730;10.276;2022-10-17T11:59:55;38.25;;;34.40;;
11143;SDS011;5626;44.730;10.276;2022-10-17T12:02:34;37.25;;;33.35;;
11143;SDS011;5626;44.730;10.276;2022-10-17T12:05:13;37.53;;;33.78;;
11143;SDS011;5626;44.730;10.276;2022-10-17T12:07:58;36.50;;;32.85;;
11143;SDS011;5626;44.730;10.276;2022-10-17T12:10:36;37.83;;;34.05;;
11143;SDS011;5626;44.730;10.276;2022-10-17T12:16:37;37.20;;;33.50;;
11143;SDS011;5626;44.730;10.276;2022-10-17T12:22:01;34.80;;;31.20;;
11143;SDS011;5626;44.730;10.276;2022-10-17T12:25:00;34.88;;;31.27;;
11143;SDS011;5626;44.730;10.276;2022-10-17T12:27:38;32.65;;;29.38;;
11143;SDS011;5626;44.730;10.276;2022-10-17T12:30:16;32.47;;;28.85;;
11143;SDS011;5626;44.730;10.276;2022-10-17T12:35:49;34.38;;;30.98;;
11143;SDS011;5626;44.730;10.276;2022-10-17T12:38:23;34.20;;;30.80;;
11143;SDS011;5626;44.730;10.276;2022-10-17T12:41:03;33.15;;;29.92;;
11143;SDS011;5626;44.730;10.276;2022-10-17T12:43:44;35.97;;;32.38;;
11143;SDS011;5626;44.730;10.276;2022-10-17T12:46:42;32.85;;;29.55;;
11143;SDS011;5626;44.730;10.276;2022-10-17T12:52:15;32.28;;;29.00;;
11143;SDS011;5626;44.730;10.276;2022-10-17T12:54:48;29.55;;;26.48;;
11143;SDS011;5626;44.730;10.276;2022-10-17T12:57:31;28.67;;;25.75;;
11143;SDS011;5626;44.730;10.276;2022-10-17T13:00:05;29.90;;;26.63;;
11143;SDS011;5626;44.730;10.276;2022-10-17T13:02:43;27.77;;;24.98;;
11143;SDS011;5626;44.730;10.276;2022-10-17T13:05:15;29.42;;;26.25;;
11143;SDS011;5626;44.730;10.276;2022-10-17T13:07:49;26.17;;;23.48;;
11143;SDS011;5626;44.730;10.276;2022-10-17T13:10:22;23.90;;;21.58;;
11143;SDS011;5626;44.730;10.276;2022-10-17T13:13:03;24.60;;;22.35;;
11143;SDS011;5626;44.730;10.276;2022-10-17T13:15:38;25.33;;;22.85;;
11143;SDS011;5626;44.730;10.276;2022-10-17T13:18:12;24.77;;;21.92;;
11143;SDS011;5626;44.730;10.276;2022-10-17T13:20:53;23.88;;;21.63;;
11143;SDS011;5626;44.730;10.276;2022-10-17T13:23:25;24.92;;;22.48;;
11143;SDS011;5626;44.730;10.276;2022-10-17T13:26:02;24.83;;;22.42;;
11143;SDS011;5626;44.730;10.276;2022-10-17T13:28:35;25.35;;;22.95;;
11143;SDS011;5626;44.730;10.276;2022-10-17T13:31:06;25.20;;;22.73;;
11143;SDS011;5626;44.730;10.276;2022-10-17T13:33:48;24.95;;;22.58;;
11143;SDS011;5626;44.730;10.276;2022-10-17T13:36:24;25.17;;;22.75;;
11143;SDS011;5626;44.730;10.276;2022-10-17T13:38:55;24.38;;;22.08;;
11143;SDS011;5626;44.730;10.276;2022-10-17T13:41:27;26.33;;;23.45;;
11143;SDS011;5626;44.730;10.276;2022-10-17T13:44:05;25.92;;;23.42;;
11143;SDS011;5626;44.730;10.276;2022-10-17T13:46:40;22.80;;;20.63;;
11143;SDS011;5626;44.730;10.276;2022-10-17T13:49:15;22.83;;;20.73;;
11143;SDS011;5626;44.730;10.276;2022-10-17T13:51:48;21.63;;;19.73;;
11143;SDS011;5626;44.730;10.276;2022-10-17T13:54:34;20.45;;;18.58;;
11143;SDS011;5626;44.730;10.276;2022-10-17T13:57:15;20.42;;;18.50;;
11143;SDS011;5626;44.730;10.276;2022-10-17T13:59:48;20.20;;;18.50;;
11143;SDS011;5626;44.730;10.276;2022-10-17T14:02:20;19.58;;;17.70;;
11143;SDS011;5626;44.730;10.276;2022-10-17T14:05:00;18.20;;;16.60;;
11143;SDS011;5626;44.730;10.276;2022-10-17T14:07:49;17.83;;;15.80;;
11143;SDS011;5626;44.730;10.276;2022-10-17T14:10:38;16.77;;;15.27;;
11143;SDS011;5626;44.730;10.276;2022-10-17T14:13:16;17.98;;;16.10;;
11143;SDS011;5626;44.730;10.276;2022-10-17T14:15:50;18.85;;;17.25;;
11143;SDS011;5626;44.730;10.276;2022-10-17T14:18:24;19.88;;;18.08;;
11143;SDS011;5626;44.730;10.276;2022-10-17T14:20:58;20.27;;;18.48;;
11143;SDS011;5626;44.730;10.276;2022-10-17T14:23:49;20.83;;;18.67;;
11143;SDS011;5626;44.730;10.276;2022-10-17T14:26:21;19.92;;;18.02;;
11143;SDS011;5626;44.730;10.276;2022-10-17T14:29:01;21.38;;;19.35;;
11143;SDS011;5626;44.730;10.276;2022-10-17T14:31:34;21.52;;;19.50;;
11143;SDS011;5626;44.730;10.276;2022-10-17T14:34:05;21.30;;;19.25;;
11143;SDS011;5626;44.730;10.276;2022-10-17T14:36:35;21.77;;;19.48;;
11143;SDS011;5626;44.730;10.276;2022-10-17T14:39:15;21.08;;;19.08;;
11143;SDS011;5626;44.730;10.276;2022-10-17T14:41:48;22.55;;;19.55;;
11143;SDS011;5626;44.730;10.276;2022-10-17T14:44:20;22.83;;;20.33;;
11143;SDS011;5626;44.730;10.276;2022-10-17T14:46:55;28.25;;;20.98;;
11143;SDS011;5626;44.730;10.276;2022-10-17T14:49:32;24.35;;;20.88;;
11143;SDS011;5626;44.730;10.276;2022-10-17T14:54:55;23.60;;;20.83;;
11143;SDS011;5626;44.730;10.276;2022-10-17T14:57:27;25.70;;;21.27;;
11143;SDS011;5626;44.730;10.276;2022-10-17T15:00:11;24.48;;;20.58;;
11143;SDS011;5626;44.730;10.276;2022-10-17T15:02:44;26.42;;;21.48;;
11143;SDS011;5626;44.730;10.276;2022-10-17T15:05:14;25.42;;;20.88;;
11143;SDS011;5626;44.730;10.276;2022-10-17T15:07:46;25.90;;;21.08;;
11143;SDS011;5626;44.730;10.276;2022-10-17T15:10:30;28.27;;;22.15;;
11143;SDS011;5626;44.730;10.276;2022-10-17T15:13:02;24.55;;;21.23;;
11143;SDS011;5626;44.730;10.276;2022-10-17T15:15:52;25.23;;;20.85;;
11143;SDS011;5626;44.730;10.276;2022-10-17T15:18:24;24.83;;;21.13;;
11143;SDS011;5626;44.730;10.276;2022-10-17T15:20:53;26.23;;;21.23;;
11143;SDS011;5626;44.730;10.276;2022-10-17T15:23:25;25.83;;;20.75;;
11143;SDS011;5626;44.730;10.276;2022-10-17T15:25:55;22.98;;;20.35;;
11143;SDS011;5626;44.730;10.276;2022-10-17T15:28:25;22.40;;;19.90;;
11143;SDS011;5626;44.730;10.276;2022-10-17T15:30:54;25.35;;;21.33;;
11143;SDS011;5626;44.730;10.276;2022-10-17T15:33:26;23.30;;;20.80;;
11143;SDS011;5626;44.730;10.276;2022-10-17T15:35:55;22.77;;;20.33;;